Time;durP1;ratioP1;P1;durP2;ratioP2;P2;SDS_P1;SDS_P2;PMS_P1;PMS_P2;Temp;Humidity;BMP_temperature;BMP_pressure;BME280_temperature;BME280_humidity;BME280_pressure;Samples;Min_cycle;Max_cycle;Signal;HPM_P1;HPM_P2
2021/06/29 00:02:59;;;;;;;1.83;1.73;;;;;;;17.21;93.89;96426.41;5193966;27;20426;-74
2021/06/29 00:05:56;;;;;;;2.88;2.45;;;;;;;17.17;93.63;96425.34;5082779;27;20792;-74
2021/06/29 00:08:51;;;;;;;1.83;1.60;;;;;;;17.11;93.90;96415.78;5121894;27;20402;-74
2021/06/29 00:11:47;;;;;;;3.53;1.60;;;;;;;17.17;94.28;96413.94;5098187;27;20388;-73
2021/06/29 00:14:41;;;;;;;3.13;1.85;;;;;;;17.23;94.50;96418.22;5194066;27;20427;-74
2021/06/29 00:17:37;;;;;;;1.95;1.85;;;;;;;17.28;94.56;96417.44;5102096;27;20402;-74
2021/06/29 00:20:33;;;;;;;2.00;1.90;;;;;;;17.29;94.39;96421.69;5152226;27;20359;-74
2021/06/29 00:23:29;;;;;;;2.80;2.30;;;;;;;17.30;94.21;96404.72;5103301;27;20401;-74
2021/06/29 00:26:32;;;;;;;2.33;2.10;;;;;;;17.24;94.36;96407.34;5133923;27;20164;-74
2021/06/29 00:29:26;;;;;;;2.80;2.65;;;;;;;17.14;94.57;96412.63;5194113;27;20454;-74
2021/06/29 00:32:20;;;;;;;4.55;3.95;;;;;;;17.08;95.04;96405.72;5194630;27;20414;-74
2021/06/29 00:35:16;;;;;;;2.90;2.58;;;;;;;17.06;95.75;96399.09;5131605;27;20397;-74
2021/06/29 00:38:11;;;;;;;2.70;2.50;;;;;;;17.03;96.38;96403.84;5101393;27;20378;-75
2021/06/29 00:41:11;;;;;;;2.55;2.35;;;;;;;16.99;96.80;96381.59;5144819;27;21011;-74
2021/06/29 00:44:17;;;;;;;2.90;2.70;;;;;;;16.98;97.35;96377.31;5106650;27;20476;-74
2021/06/29 00:47:11;;;;;;;2.60;2.40;;;;;;;16.98;97.71;96364.06;5152239;27;20377;-74
2021/06/29 00:50:15;;;;;;;3.63;3.00;;;;;;;17.04;98.11;96359.59;5127370;27;20883;-75
2021/06/29 00:53:19;;;;;;;2.63;2.40;;;;;;;17.07;98.10;96337.06;5125383;27;20721;-74
2021/06/29 00:56:15;;;;;;;3.25;2.58;;;;;;;17.09;97.97;96333.09;5194364;27;20378;-75
2021/06/29 00:59:10;;;;;;;3.75;3.45;;;;;;;17.04;98.19;96318.00;5194465;27;20433;-74
2021/06/29 01:02:13;;;;;;;3.00;2.80;;;;;;;17.00;98.32;96303.69;5081671;28;20423;-73
2021/06/29 01:05:14;;;;;;;2.60;2.45;;;;;;;17.04;98.65;96299.47;5146609;27;20395;-75
2021/06/29 01:08:08;;;;;;;2.63;2.50;;;;;;;17.09;98.85;96285.41;5194752;27;20437;-74
2021/06/29 01:11:14;;;;;;;2.90;2.70;;;;;;;17.13;98.86;96289.13;5150162;27;20433;-74
2021/06/29 01:14:11;;;;;;;3.00;2.80;;;;;;;17.10;98.98;96302.91;5102271;27;20395;-74
2021/06/29 01:17:09;;;;;;;2.90;2.75;;;;;;;17.08;99.22;96323.59;5113932;27;20431;-74
2021/06/29 01:20:15;;;;;;;3.50;3.20;;;;;;;17.04;100.00;96312.69;5194191;27;20799;-74
2021/06/29 01:23:20;;;;;;;3.30;3.10;;;;;;;17.02;99.73;96293.63;5070000;28;20423;-74
2021/06/29 01:26:22;;;;;;;3.72;3.50;;;;;;;17.00;100.00;96297.59;5194298;27;20391;-73
2021/06/29 01:30:57;;;;;;;3.67;3.38;;;;;;;16.96;100.00;96292.03;5150317;27;20418;-73
2021/06/29 01:32:49;;;;;;;3.00;2.80;;;;;;;16.93;100.00;96281.97;5105059;27;20401;-74
2021/06/29 01:35:42;;;;;;;5.45;2.70;;;;;;;16.90;100.00;96295.72;5113922;27;20406;-74
2021/06/29 01:38:35;;;;;;;2.88;2.67;;;;;;;16.87;100.00;96301.53;5194199;27;20401;-75
2021/06/29 01:41:35;;;;;;;2.70;2.50;;;;;;;16.85;100.00;96293.06;5144968;27;20429;-74
2021/06/29 01:44:34;;;;;;;2.78;2.50;;;;;;;16.86;100.00;96325.63;5194251;27;20421;-74
2021/06/29 01:47:51;;;;;;;3.15;2.95;;;;;;;16.87;100.00;96361.69;5110011;27;20429;-74
2021/06/29 01:50:55;;;;;;;3.45;3.15;;;;;;;16.81;100.00;96352.91;5125181;27;20920;-74
2021/06/29 01:53:48;;;;;;;3.38;3.10;;;;;;;16.76;100.00;96372.19;5113463;27;20403;-74
2021/06/29 01:56:43;;;;;;;3.85;3.55;;;;;;;16.72;100.00;96368.47;5194553;27;20385;-74
2021/06/29 01:59:43;;;;;;;3.72;3.53;;;;;;;16.67;100.00;96373.72;5194158;27;20893;-76
2021/06/29 02:02:38;;;;;;;2.88;2.53;;;;;;;16.69;100.00;96363.69;5111184;27;20393;-73
2021/06/29 02:05:33;;;;;;;3.38;3.03;;;;;;;16.70;100.00;96349.41;5152396;27;20121;-74
2021/06/29 02:08:27;;;;;;;3.38;2.92;;;;;;;16.68;100.00;96353.38;5194778;27;20378;-74
2021/06/29 02:11:22;;;;;;;3.03;2.83;;;;;;;16.64;100.00;96353.88;5194118;27;20475;-74
2021/06/29 02:14:17;;;;;;;3.78;2.67;;;;;;;16.65;100.00;96349.34;5152117;27;20593;-74
2021/06/29 02:17:17;;;;;;;3.50;2.20;;;;;;;16.66;100.00;96344.88;5069877;28;20423;-75
2021/06/29 02:20:13;;;;;;;2.22;2.00;;;;;;;16.63;100.00;96330.28;5152070;27;20477;-74
2021/06/29 02:23:09;;;;;;;4.15;2.30;;;;;;;16.60;100.00;96333.47;5152141;27;20674;-74
2021/06/29 02:26:02;;;;;;;2.38;2.17;;;;;;;16.58;100.00;96331.06;5110990;27;20432;-75
2021/06/29 02:28:56;;;;;;;2.55;2.20;;;;;;;16.59;100.00;96353.84;5194393;27;20441;-75
2021/06/29 02:31:48;;;;;;;2.30;2.08;;;;;;;16.62;100.00;96357.84;5080416;27;20392;-73
2021/06/29 02:34:43;;;;;;;4.43;2.13;;;;;;;16.60;100.00;96363.38;5152126;27;20114;-73
2021/06/29 02:37:37;;;;;;;2.33;1.80;;;;;;;16.63;100.00;96386.72;5194386;27;20922;-74
2021/06/29 02:40:28;;;;;;;2.25;1.83;;;;;;;16.66;100.00;96392.53;5116374;27;20395;-74
2021/06/29 02:43:22;;;;;;;3.88;1.90;;;;;;;16.64;100.00;96390.16;5119718;27;20187;-74
2021/06/29 02:46:16;;;;;;;3.65;2.15;;;;;;;16.55;100.00;96373.97;5194132;27;20422;-73
2021/06/29 02:49:11;;;;;;;2.83;2.50;;;;;;;16.47;100.00;96373.66;5194192;27;20471;-72
2021/06/29 02:52:01;;;;;;;5.35;1.80;;;;;;;16.46;100.00;96370.19;5119862;27;20460;-73
2021/06/29 02:54:56;;;;;;;2.10;1.90;;;;;;;16.45;100.00;96363.31;5119843;27;20175;-72
2021/06/29 02:57:49;;;;;;;3.47;2.10;;;;;;;16.42;100.00;96346.09;5110736;27;20883;-72
2021/06/29 03:00:47;;;;;;;1.88;1.65;;;;;;;16.36;100.00;96299.50;5115039;27;20169;-72
2021/06/29 03:03:41;;;;;;;2.00;1.90;;;;;;;16.35;100.00;96268.78;5119692;27;20590;-72
2021/06/29 03:06:37;;;;;;;1.73;1.63;;;;;;;16.34;100.00;96298.97;5194628;27;20426;-72
2021/06/29 03:09:41;;;;;;;3.80;1.65;;;;;;;16.37;100.00;96322.25;5133393;27;20379;-72
2021/06/29 03:12:38;;;;;;;1.70;1.60;;;;;;;16.40;100.00;96320.97;5194452;27;20414;-73
2021/06/29 03:15:44;;;;;;;1.73;1.58;;;;;;;16.43;100.00;96329.16;5150133;27;20421;-73
2021/06/29 03:18:38;;;;;;;2.30;1.38;;;;;;;16.48;100.00;96340.81;5194097;27;20462;-73
2021/06/29 03:21:32;;;;;;;1.70;1.58;;;;;;;16.50;100.00;96331.56;5194281;27;20435;-73
2021/06/29 03:24:27;;;;;;;1.80;1.70;;;;;;;16.52;100.00;96326.03;5120121;27;20423;-72
2021/06/29 03:27:22;;;;;;;1.80;1.70;;;;;;;16.51;100.00;96337.69;5152575;27;20153;-73
2021/06/29 03:30:14;;;;;;;1.85;1.52;;;;;;;16.46;100.00;96325.19;5122211;27;20360;-73
2021/06/29 03:33:05;;;;;;;1.73;1.63;;;;;;;16.36;100.00;96293.41;5122152;27;20359;-74
2021/06/29 03:36:01;;;;;;;1.80;1.38;;;;;;;16.31;100.00;96310.03;5128238;27;20398;-74
2021/06/29 03:39:00;;;;;;;1.63;1.52;;;;;;;16.31;100.00;96303.97;5146798;27;20406;-73
2021/06/29 03:41:50;;;;;;;3.40;1.30;;;;;;;16.35;100.00;96308.47;5113780;27;20397;-74
2021/06/29 03:44:45;;;;;;;1.73;1.55;;;;;;;16.40;100.00;96303.22;5152109;27;20203;-73
2021/06/29 03:47:43;;;;;;;2.30;1.45;;;;;;;16.48;100.00;96306.41;5110374;27;20399;-74
2021/06/29 03:50:40;;;;;;;1.48;1.48;;;;;;;16.51;100.00;96284.75;5114830;27;20557;-74
2021/06/29 03:53:35;;;;;;;1.20;1.20;;;;;;;16.54;100.00;96263.81;5194200;27;20462;-74
2021/06/29 03:56:31;;;;;;;4.00;2.22;;;;;;;16.56;99.99;96216.69;5194071;27;20927;-74
2021/06/29 03:59:27;;;;;;;1.83;1.45;;;;;;;16.50;99.34;96142.84;5109031;27;20426;-73
2021/06/29 04:02:22;;;;;;;1.38;0.80;;;;;;;16.40;97.93;96107.38;5194186;27;20433;-74
2021/06/29 04:05:17;;;;;;;0.80;0.80;;;;;;;16.37;98.23;96176.69;5194766;27;20377;-73
2021/06/29 04:08:10;;;;;;;1.33;1.23;;;;;;;16.34;98.22;96277.78;5119033;27;20887;-73
2021/06/29 04:11:11;;;;;;;1.60;1.50;;;;;;;16.23;98.45;96262.91;5146188;27;20207;-74
2021/06/29 04:14:06;;;;;;;1.60;1.50;;;;;;;16.20;99.00;96264.22;5152539;27;20609;-73
2021/06/29 04:17:00;;;;;;;1.52;1.35;;;;;;;16.23;99.43;96276.94;5079050;28;20386;-73
2021/06/29 04:19:54;;;;;;;1.80;0.90;;;;;;;16.23;98.84;96271.66;5194748;27;20839;-74
2021/06/29 04:22:55;;;;;;;1.30;1.20;;;;;;;16.27;98.63;96271.13;5144957;27;20390;-74
2021/06/29 04:25:56;;;;;;;1.10;1.02;;;;;;;16.27;98.71;96250.75;5069914;28;20427;-75
2021/06/29 04:28:49;;;;;;;2.35;1.00;;;;;;;16.31;99.46;96229.88;5085351;27;20388;-75
2021/06/29 04:31:43;;;;;;;1.27;1.17;;;;;;;16.36;99.35;96233.34;5110392;27;20432;-74
2021/06/29 04:34:39;;;;;;;1.00;0.90;;;;;;;16.42;98.97;96224.34;5152537;27;20377;-74
2021/06/29 04:37:16;;;;;;;1.15;1.10;;;;;;;16.48;98.60;96225.16;4447364;27;19360001;-73
2021/06/29 04:40:16;;;;;;;1.13;0.90;;;;;;;16.52;98.32;96226.22;5146620;27;20433;-74
2021/06/29 04:43:12;;;;;;;1.15;1.00;;;;;;;16.58;98.22;96237.63;5152472;27;20130;-73
2021/06/29 04:46:08;;;;;;;2.25;1.00;;;;;;;16.61;98.08;96267.03;5104316;27;20420;-74
2021/06/29 04:49:03;;;;;;;0.93;0.90;;;;;;;16.62;98.30;96254.59;5194544;27;20426;-73
2021/06/29 04:51:57;;;;;;;1.10;0.90;;;;;;;16.63;97.90;96230.50;5194357;27;20425;-73
2021/06/29 04:54:51;;;;;;;1.02;1.00;;;;;;;16.65;97.64;96222.28;5082544;27;20419;-74
2021/06/29 04:57:57;;;;;;;1.10;1.00;;;;;;;16.69;97.87;96241.88;5150148;27;20390;-73
2021/06/29 05:00:51;;;;;;;1.00;1.00;;;;;;;16.71;97.31;96236.31;5194213;27;21762;-74
2021/06/29 05:03:45;;;;;;;0.80;0.80;;;;;;;16.73;97.32;96236.88;5194365;27;20915;-73
2021/06/29 05:06:36;;;;;;;1.08;1.08;;;;;;;16.74;97.40;96233.16;5078473;28;20387;-74
2021/06/29 05:09:31;;;;;;;1.17;1.00;;;;;;;16.77;97.12;96238.72;5111070;27;20721;-73
2021/06/29 05:12:24;;;;;;;0.93;0.93;;;;;;;16.80;96.70;96240.06;5194527;27;20446;-74
2021/06/29 05:15:19;;;;;;;1.10;0.90;;;;;;;16.80;96.58;96246.19;5194105;27;20463;-73
2021/06/29 05:18:27;;;;;;;0.98;0.77;;;;;;;16.83;96.03;96250.94;5150161;27;20414;-74
2021/06/29 05:21:22;;;;;;;1.83;1.00;;;;;;;16.86;96.29;96243.53;5127856;27;20430;-74
2021/06/29 05:24:16;;;;;;;1.70;0.90;;;;;;;16.89;96.09;96250.97;5194083;27;20404;-74
2021/06/29 05:27:10;;;;;;;2.10;0.82;;;;;;;16.93;96.09;96252.81;5194322;27;20433;-74
2021/06/29 05:30:07;;;;;;;0.90;0.90;;;;;;;16.97;95.96;96248.59;5194736;27;20490;-75
2021/06/29 05:33:18;;;;;;;1.00;0.93;;;;;;;17.02;95.48;96251.22;5110963;27;20429;-74
2021/06/29 05:36:13;;;;;;;0.90;0.90;;;;;;;17.06;95.40;96246.22;5194413;27;20430;-74
2021/06/29 05:39:15;;;;;;;0.90;0.90;;;;;;;17.11;95.09;96248.84;5053174;28;20449;-74
2021/06/29 05:42:09;;;;;;;0.73;0.73;;;;;;;17.15;95.01;96263.16;5152150;27;20598;-74
2021/06/29 05:45:06;;;;;;;1.48;1.20;;;;;;;17.20;94.74;96268.47;5194655;27;20397;-74
2021/06/29 05:48:00;;;;;;;1.17;1.00;;;;;;;17.25;94.72;96257.09;5194433;27;20405;-74
2021/06/29 05:50:55;;;;;;;1.90;1.30;;;;;;;17.29;95.26;96246.75;5117156;27;20426;-74
2021/06/29 05:53:49;;;;;;;1.00;1.00;;;;;;;17.32;94.74;96238.25;5194232;27;20431;-74
2021/06/29 05:56:44;;;;;;;1.08;1.02;;;;;;;17.35;94.77;96232.44;5194041;27;20888;-73
2021/06/29 05:59:40;;;;;;;1.13;1.08;;;;;;;17.38;94.97;96232.69;5152189;27;20161;-74
2021/06/29 06:02:41;;;;;;;1.30;1.20;;;;;;;17.40;94.81;96230.56;5146423;27;20587;-74
2021/06/29 06:05:38;;;;;;;1.88;1.30;;;;;;;17.38;94.35;96230.03;5114821;27;20347;-74
2021/06/29 06:08:33;;;;;;;1.30;1.20;;;;;;;17.37;94.72;96228.47;5194183;27;20432;-75
2021/06/29 06:11:08;;;;;;;1.35;1.20;;;;;;;17.42;95.26;96222.34;3914871;27;33212942;-74
2021/06/29 06:13:59;;;;;;;1.98;1.15;;;;;;;17.50;94.78;96221.81;5089049;27;20878;-74
2021/06/29 06:16:49;;;;;;;1.33;1.20;;;;;;;17.56;94.58;96222.63;5115182;27;20405;-74
2021/06/29 06:19:41;;;;;;;1.15;1.08;;;;;;;17.63;94.33;96225.78;5115005;27;20749;-74
2021/06/29 06:22:40;;;;;;;1.33;1.23;;;;;;;17.75;93.63;96223.63;5145115;27;20426;-72
2021/06/29 06:25:34;;;;;;;3.88;1.70;;;;;;;17.97;93.01;96219.88;5194193;27;20463;-73
2021/06/29 06:28:30;;;;;;;3.63;1.58;;;;;;;18.14;91.18;96211.59;5194011;27;20462;-74
2021/06/29 06:31:24;;;;;;;4.05;1.48;;;;;;;18.33;90.39;96223.22;5194511;27;20417;-74
2021/06/29 06:34:29;;;;;;;1.02;1.02;;;;;;;18.60;88.45;96212.16;5149931;27;20406;-74
2021/06/29 06:37:23;;;;;;;0.80;0.80;;;;;;;18.98;87.10;96212.50;5194053;27;20465;-74
2021/06/29 06:40:18;;;;;;;0.60;0.50;;;;;;;19.45;85.90;96199.59;5194234;27;20478;-74
2021/06/29 06:43:12;;;;;;;0.50;0.50;;;;;;;20.09;84.35;96192.28;5194259;27;21840;-74
2021/06/29 06:46:08;;;;;;;0.65;0.65;;;;;;;20.71;81.96;96186.19;5194402;27;20426;-75
2021/06/29 06:49:03;;;;;;;1.27;1.10;;;;;;;21.08;79.18;96188.00;5194082;27;20442;-74
2021/06/29 06:52:04;;;;;;;1.67;0.80;;;;;;;21.32;76.91;96187.09;5146280;27;20720;-73
2021/06/29 06:54:59;;;;;;;0.70;0.70;;;;;;;21.40;75.22;96189.09;5130570;27;20713;-74
2021/06/29 06:57:56;;;;;;;1.10;1.00;;;;;;;21.44;74.33;96182.09;5101129;27;20731;-74
2021/06/29 07:00:51;;;;;;;2.55;1.20;;;;;;;21.14;73.24;96181.50;5131547;27;21030;-74
2021/06/29 07:03:47;;;;;;;1.13;1.00;;;;;;;20.87;73.27;96179.53;5193995;27;20382;-74
2021/06/29 07:06:44;;;;;;;0.70;0.63;;;;;;;20.88;73.96;96175.81;5115133;27;20356;-74
2021/06/29 07:09:51;;;;;;;0.82;0.80;;;;;;;21.07;73.91;96170.44;5149894;27;20135;-74
2021/06/29 07:12:49;;;;;;;0.70;0.70;;;;;;;21.30;73.27;96176.72;5107419;27;20427;-74
2021/06/29 07:15:45;;;;;;;0.57;0.47;;;;;;;21.48;73.01;96175.91;5104220;27;20362;-73
2021/06/29 07:18:39;;;;;;;1.33;0.50;;;;;;;21.56;71.89;96171.75;5194707;27;20779;-74
2021/06/29 07:21:26;;;;;;;0.60;0.55;;;;;;;21.71;71.60;96184.00;5070593;28;20392;-74
2021/06/29 07:24:04;;;;;;;1.08;0.50;;;;;;;21.85;71.09;96184.81;5132079;27;20366;-74
2021/06/29 07:26:41;;;;;;;3.13;0.52;;;;;;;21.96;70.08;96174.72;5131956;27;20334;-74
2021/06/29 07:29:19;;;;;;;1.30;0.40;;;;;;;21.85;68.33;96176.03;5111335;27;20113;-74
2021/06/29 07:32:00;;;;;;;0.38;0.38;;;;;;;21.71;67.14;96177.88;5070872;28;20389;-74
2021/06/29 07:34:37;;;;;;;0.32;0.30;;;;;;;21.65;66.58;96179.88;5131844;27;20378;-74
2021/06/29 07:37:13;;;;;;;0.30;0.30;;;;;;;21.61;65.51;96170.88;5070908;28;20912;-74
2021/06/29 07:39:50;;;;;;;0.55;0.32;;;;;;;21.68;65.06;96174.72;5071063;28;20762;-74
2021/06/29 07:42:26;;;;;;;1.45;0.38;;;;;;;21.88;64.57;96175.41;5131946;27;20378;-74
2021/06/29 07:45:06;;;;;;;0.43;0.43;;;;;;;22.05;63.88;96169.50;5070725;28;20385;-74
2021/06/29 07:47:43;;;;;;;0.40;0.40;;;;;;;22.28;63.67;96173.06;5070440;28;20387;-74
2021/06/29 07:50:19;;;;;;;0.45;0.45;;;;;;;22.40;62.51;96169.84;5070431;28;20742;-74
2021/06/29 07:52:57;;;;;;;0.30;0.30;;;;;;;22.25;61.28;96171.75;5111516;27;20898;-74
2021/06/29 07:55:34;;;;;;;2.17;0.50;;;;;;;22.26;61.25;96167.22;5131805;27;20379;-74
2021/06/29 07:58:11;;;;;;;0.40;0.40;;;;;;;22.34;60.90;96163.81;5091030;28;20385;-74
2021/06/29 08:00:48;;;;;;;1.00;0.50;;;;;;;22.56;60.48;96147.06;5104871;27;20450;-74
2021/06/29 08:03:26;;;;;;;0.60;0.60;;;;;;;22.72;59.97;96139.50;5127828;27;20172;-74
2021/06/29 08:06:05;;;;;;;0.50;0.40;;;;;;;22.92;59.63;96137.41;5111091;27;20127;-74
2021/06/29 08:08:43;;;;;;;0.47;0.47;;;;;;;22.86;58.65;96129.50;5111659;27;20113;-74
2021/06/29 08:11:21;;;;;;;0.50;0.50;;;;;;;23.00;58.50;96136.69;5129397;27;20192;-73
2021/06/29 08:14:00;;;;;;;0.80;0.65;;;;;;;23.02;57.76;96132.63;5090945;27;20378;-73
2021/06/29 08:16:37;;;;;;;1.52;0.40;;;;;;;22.94;57.82;96141.34;5110981;27;20670;-74
2021/06/29 08:19:17;;;;;;;0.43;0.30;;;;;;;23.03;57.73;96134.19;5132244;27;20135;-74
2021/06/29 08:21:55;;;;;;;1.67;0.35;;;;;;;22.73;57.76;96138.38;5131978;27;20139;-74
2021/06/29 08:24:32;;;;;;;0.63;0.40;;;;;;;22.60;58.35;96136.56;5131823;27;20375;-73
2021/06/29 08:27:14;;;;;;;0.45;0.45;;;;;;;22.70;58.28;96121.06;5070780;28;20387;-74
2021/06/29 08:29:53;;;;;;;0.60;0.60;;;;;;;22.79;58.24;96115.00;5071047;28;20389;-74
2021/06/29 08:32:31;;;;;;;0.63;0.50;;;;;;;22.78;57.43;96118.75;5060380;28;20374;-74
2021/06/29 08:35:11;;;;;;;0.50;0.50;;;;;;;22.62;57.63;96115.66;5090860;27;20377;-74
2021/06/29 08:37:50;;;;;;;0.57;0.50;;;;;;;22.59;57.83;96105.56;5070717;28;20391;-74
2021/06/29 08:40:28;;;;;;;1.17;0.55;;;;;;;22.83;58.22;96103.38;5111626;27;20406;-74
2021/06/29 08:43:07;;;;;;;1.02;0.65;;;;;;;23.06;57.81;96106.06;5129021;27;20661;-74
2021/06/29 08:45:45;;;;;;;0.45;0.45;;;;;;;23.05;57.63;96104.47;5131661;27;20120;-74
2021/06/29 08:48:22;;;;;;;0.63;0.43;;;;;;;22.78;57.46;96108.84;5111705;27;20124;-74
2021/06/29 08:51:05;;;;;;;1.23;0.75;;;;;;;22.47;57.89;96114.13;5131998;27;20112;-74
2021/06/29 08:53:41;;;;;;;0.57;0.55;;;;;;;22.59;58.02;96108.25;5090852;28;20372;-74
2021/06/29 08:56:18;;;;;;;0.47;0.47;;;;;;;22.46;58.03;96110.66;5111016;27;20453;-74
2021/06/29 08:58:57;;;;;;;0.75;0.50;;;;;;;22.22;58.44;96110.13;5132228;27;20569;-74
2021/06/29 09:01:35;;;;;;;0.60;0.60;;;;;;;22.31;58.72;96112.91;5070662;28;20382;-74
2021/06/29 09:04:13;;;;;;;0.40;0.32;;;;;;;22.55;58.50;96104.59;5131276;27;20221;-76
2021/06/29 09:06:51;;;;;;;0.52;0.43;;;;;;;22.86;58.27;96091.28;5132094;27;20132;-74
2021/06/29 09:09:31;;;;;;;0.52;0.52;;;;;;;23.15;57.62;96084.72;5111468;27;20132;-74
2021/06/29 09:12:09;;;;;;;1.27;0.82;;;;;;;23.22;57.23;96080.47;5070854;28;20374;-74
2021/06/29 09:14:46;;;;;;;1.02;0.80;;;;;;;23.16;56.96;96071.03;5105757;27;20403;-75
2021/06/29 09:17:24;;;;;;;0.85;0.65;;;;;;;23.29;56.91;96077.38;5070819;28;20732;-74
2021/06/29 09:20:04;;;;;;;0.75;0.50;;;;;;;23.23;56.34;96058.00;5105677;27;20945;-74
2021/06/29 09:22:41;;;;;;;0.50;0.40;;;;;;;23.38;56.06;96062.16;5070761;28;20378;-74
2021/06/29 09:25:27;;;;;;;0.40;0.40;;;;;;;23.59;55.85;96054.34;5126719;27;20172;-75
2021/06/29 09:28:05;;;;;;;0.30;0.30;;;;;;;23.66;55.35;96051.97;5091016;27;20366;-74
2021/06/29 09:30:46;;;;;;;1.55;0.30;;;;;;;23.79;55.21;96044.16;5070907;28;20393;-74
2021/06/29 09:33:27;;;;;;;0.43;0.43;;;;;;;23.90;54.87;96040.88;5070741;28;20401;-74
2021/06/29 09:36:10;;;;;;;0.50;0.50;;;;;;;24.07;55.38;96039.34;5091007;28;20748;-74
2021/06/29 09:38:48;;;;;;;0.77;0.77;;;;;;;24.27;54.89;96035.22;5111656;27;20364;-74
2021/06/29 09:41:29;;;;;;;0.32;0.32;;;;;;;24.59;54.88;96033.97;5091164;27;20382;-74
2021/06/29 09:44:18;;;;;;;1.75;0.60;;;;;;;24.82;53.61;96020.34;5131826;27;20375;-75
2021/06/29 09:46:56;;;;;;;1.45;0.85;;;;;;;24.92;53.90;96015.44;5110831;27;20399;-75
2021/06/29 09:49:39;;;;;;;0.50;0.50;;;;;;;25.02;53.71;96008.91;5091143;28;20126;-74
2021/06/29 09:52:30;;;;;;;0.40;0.40;;;;;;;25.02;52.40;95986.69;5110938;27;20885;-76
2021/06/29 09:55:07;;;;;;;0.30;0.30;;;;;;;25.08;52.82;95996.91;5071056;28;20726;-75
2021/06/29 09:57:43;;;;;;;0.50;0.50;;;;;;;25.19;52.29;95978.53;5070560;28;20393;-75
2021/06/29 10:00:59;;;;;;;1.17;0.75;;;;;;;25.14;51.41;95967.22;5110944;27;20418;-74
2021/06/29 10:03:38;;;;;;;0.40;0.40;;;;;;;25.29;52.24;95967.47;5091054;28;20384;-74
2021/06/29 10:06:23;;;;;;;0.22;0.22;;;;;;;25.27;48.50;95934.03;5070615;28;20383;-75
2021/06/29 10:09:06;;;;;;;0.40;0.40;;;;;;;25.01;50.21;95948.34;5070793;28;20377;-74
2021/06/29 10:11:54;;;;;;;1.17;0.43;;;;;;;24.85;50.85;95948.06;5090739;27;20391;-75
2021/06/29 10:14:34;;;;;;;0.30;0.30;;;;;;;24.77;51.32;95946.22;5131873;27;20371;-74
2021/06/29 10:17:12;;;;;;;1.38;0.38;;;;;;;24.83;51.70;95952.19;5070752;28;20385;-74
2021/06/29 10:22:55;;;;;;;0.40;0.40;;;;;;;25.09;52.20;95952.88;5090900;27;20381;-74
2021/06/29 10:25:32;;;;;;;0.20;0.20;;;;;;;25.36;52.27;95948.16;5070786;28;20383;-74
2021/06/29 10:28:13;;;;;;;0.68;0.40;;;;;;;25.48;51.81;95947.47;5090643;27;20749;-74
2021/06/29 10:30:50;;;;;;;0.40;0.40;;;;;;;25.57;51.38;95945.50;5127106;27;20572;-74
2021/06/29 10:33:29;;;;;;;0.30;0.30;;;;;;;25.54;51.56;95948.84;5131567;27;20215;-74
2021/06/29 10:36:07;;;;;;;0.40;0.40;;;;;;;25.60;51.86;95946.75;5070417;28;20385;-74
2021/06/29 10:38:46;;;;;;;0.85;0.70;;;;;;;25.64;51.80;95958.41;5090686;27;20378;-74
2021/06/29 10:41:33;;;;;;;1.13;0.60;;;;;;;25.86;52.43;95968.03;5091077;28;20340;-74
2021/06/29 10:44:16;;;;;;;1.92;1.30;;;;;;;25.95;51.65;95957.25;5131772;27;20128;-74
2021/06/29 10:46:55;;;;;;;6.97;6.38;;;;;;;26.07;51.69;95958.09;5070644;28;20381;-74
2021/06/29 10:49:31;;;;;;;1.73;1.63;;;;;;;26.08;51.35;95950.81;5070948;28;20389;-74
2021/06/29 10:52:22;;;;;;;4.00;3.70;;;;;;;26.01;50.58;95955.94;5111252;27;20588;-75
2021/06/29 10:55:00;;;;;;;0.60;0.60;;;;;;;25.85;51.29;95956.53;5096862;27;20366;-74
2021/06/29 10:57:43;;;;;;;0.35;0.30;;;;;;;25.75;49.68;95942.72;5132203;27;20379;-74
2021/06/29 11:00:20;;;;;;;0.40;0.40;;;;;;;25.77;50.47;95929.75;5070694;28;20375;-74
2021/06/29 11:03:04;;;;;;;0.25;0.25;;;;;;;25.70;49.74;95914.94;5127469;27;20432;-74
2021/06/29 11:05:44;;;;;;;0.73;0.50;;;;;;;25.50;49.65;95913.81;5110835;27;20443;-74
2021/06/29 11:08:24;;;;;;;1.92;1.15;;;;;;;25.40;49.52;95916.88;5111527;27;20376;-74
2021/06/29 11:11:09;;;;;;;1.40;1.40;;;;;;;25.37;49.09;95914.06;5070853;28;20371;-74
2021/06/29 11:13:47;;;;;;;0.50;0.50;;;;;;;25.32;49.58;95923.09;5090628;28;20388;-74
2021/06/29 11:16:51;;;;;;;0.38;0.32;;;;;;;25.36;50.96;95937.44;5131975;27;20375;-74
2021/06/29 11:20:13;;;;;;;0.52;0.40;;;;;;;25.41;50.93;95931.06;5070736;28;20371;-74
2021/06/29 11:23:00;;;;;;;0.40;0.40;;;;;;;25.47;48.94;95917.16;5131899;27;20893;-74
2021/06/29 11:25:46;;;;;;;0.52;0.52;;;;;;;25.47;50.80;95927.09;5111085;27;20397;-74
2021/06/29 11:28:29;;;;;;;1.55;0.47;;;;;;;25.50;49.59;95924.53;5110703;27;20956;-75
2021/06/29 11:31:20;;;;;;;0.40;0.40;;;;;;;25.50;49.57;95911.13;5070955;28;20374;-75
2021/06/29 11:34:04;;;;;;;0.38;0.30;;;;;;;25.39;48.53;95898.41;5111125;27;20453;-74
2021/06/29 11:36:50;;;;;;;0.40;0.38;;;;;;;25.28;49.34;95914.91;5070804;28;20382;-74
2021/06/29 11:39:31;;;;;;;0.35;0.30;;;;;;;25.22;50.06;95918.09;5070712;28;20375;-74
2021/06/29 11:42:20;;;;;;;0.82;0.50;;;;;;;25.27;50.41;95915.25;5104137;27;20404;-74
2021/06/29 11:45:04;;;;;;;0.40;0.40;;;;;;;25.42;50.67;95913.88;5070575;28;20735;-74
2021/06/29 11:47:41;;;;;;;0.45;0.30;;;;;;;25.61;50.71;95910.72;5103212;27;20450;-74
2021/06/29 11:50:20;;;;;;;0.40;0.40;;;;;;;25.73;50.37;95918.84;5131529;27;20120;-74
2021/06/29 11:53:00;;;;;;;0.32;0.32;;;;;;;25.85;50.11;95918.13;5131877;27;20120;-74
2021/06/29 11:55:39;;;;;;;0.20;0.20;;;;;;;25.96;50.90;95915.88;5090694;27;20382;-74
2021/06/29 11:58:17;;;;;;;0.40;0.40;;;;;;;26.02;50.52;95927.97;5105057;27;20411;-74
2021/06/29 12:00:57;;;;;;;0.60;0.60;;;;;;;25.96;50.37;95937.34;5124816;27;20176;-73
2021/06/29 12:03:34;;;;;;;0.30;0.30;;;;;;;25.83;50.64;95925.72;5090760;28;20377;-74
2021/06/29 12:06:20;;;;;;;0.38;0.38;;;;;;;25.76;49.35;95926.25;5070669;28;20383;-74
2021/06/29 12:08:59;;;;;;;0.40;0.40;;;;;;;25.67;50.20;95934.38;5131722;27;20216;-74
2021/06/29 12:11:35;;;;;;;0.65;0.40;;;;;;;25.52;50.55;95946.47;5070570;28;20386;-75
2021/06/29 12:14:19;;;;;;;0.45;0.40;;;;;;;25.32;50.49;95949.94;5071060;28;20385;-74
2021/06/29 12:17:00;;;;;;;0.30;0.30;;;;;;;25.00;51.43;95965.53;5105110;27;20398;-74
2021/06/29 12:19:40;;;;;;;0.50;0.50;;;;;;;24.66;51.50;95971.81;5111024;27;20453;-74
2021/06/29 12:22:30;;;;;;;1.15;0.45;;;;;;;24.37;50.87;95969.81;5111079;27;20179;-74
2021/06/29 12:25:17;;;;;;;0.22;0.22;;;;;;;24.10;52.13;95996.59;5132038;27;20371;-74
2021/06/29 12:27:55;;;;;;;1.10;0.38;;;;;;;23.67;52.30;96080.34;5090971;27;20376;-74
2021/06/29 12:30:38;;;;;;;0.55;0.20;;;;;;;22.60;50.26;96057.16;5110238;27;20410;-74
2021/06/29 12:33:16;;;;;;;0.35;0.10;;;;;;;21.68;52.39;96075.97;5071139;28;20381;-74
2021/06/29 12:35:59;;;;;;;0.63;0.28;;;;;;;20.81;53.31;96074.91;5107399;27;20399;-74
2021/06/29 12:38:47;;;;;;;1.10;0.60;;;;;;;19.86;57.90;96136.16;5131870;27;20363;-72
2021/06/29 12:41:30;;;;;;;1.73;0.80;;;;;;;19.30;56.93;96125.28;5132280;27;20108;-72
2021/06/29 12:44:11;;;;;;;1.33;0.65;;;;;;;18.95;59.84;96151.91;5070721;28;20377;-72
2021/06/29 12:46:48;;;;;;;1.00;0.55;;;;;;;18.70;59.57;96155.53;5091081;27;20809;-71
2021/06/29 12:49:27;;;;;;;0.65;0.52;;;;;;;18.34;60.71;96152.31;5111369;27;20132;-71
2021/06/29 12:52:11;;;;;;;6.45;0.50;;;;;;;18.00;63.41;96151.16;5070971;28;20382;-71
2021/06/29 12:54:50;;;;;;;1.42;0.60;;;;;;;17.68;62.86;96132.97;5132095;27;20367;-71
2021/06/29 12:57:28;;;;;;;1.70;0.85;;;;;;;17.51;63.93;96138.56;5107046;27;20416;-72
2021/06/29 13:00:11;;;;;;;0.77;0.60;;;;;;;17.28;64.94;96139.94;5131688;27;20595;-71
2021/06/29 13:02:47;;;;;;;0.57;0.25;;;;;;;17.02;65.59;96147.13;5131690;27;20370;-72
2021/06/29 13:05:25;;;;;;;0.40;0.40;;;;;;;16.70;66.54;96157.97;5105056;27;20423;-71
2021/06/29 13:08:15;;;;;;;0.40;0.20;;;;;;;16.59;71.64;96181.00;5111073;27;20140;-72
2021/06/29 13:10:51;;;;;;;1.48;0.40;;;;;;;16.55;68.45;96180.72;5131977;27;20727;-72
2021/06/29 13:13:28;;;;;;;0.85;0.30;;;;;;;16.54;69.17;96175.66;5070787;28;20389;-72
2021/06/29 13:16:17;;;;;;;0.17;0.17;;;;;;;16.55;72.60;96187.88;5070627;28;20377;-72
2021/06/29 13:18:55;;;;;;;0.40;0.38;;;;;;;16.44;70.36;96174.59;5070576;28;20378;-72